sensor_id;sensor_type;location;lat;lon;timestamp;temperature;humidity
18839;DHT22;9548;56.920;14.804;2022-10-16T00:00:00;11.80;99.90
18839;DHT22;9548;56.920;14.804;2022-10-16T00:02:27;11.80;99.90
18839;DHT22;9548;56.920;14.804;2022-10-16T00:04:54;11.80;99.90
18839;DHT22;9548;56.920;14.804;2022-10-16T00:07:21;11.80;99.90
18839;DHT22;9548;56.920;14.804;2022-10-16T00:09:48;11.80;99.90
18839;DHT22;9548;56.920;14.804;2022-10-16T00:12:15;11.80;99.90
18839;DHT22;9548;56.920;14.804;2022-10-16T00:14:43;11.80;99.90
18839;DHT22;9548;56.920;14.804;2022-10-16T00:17:10;11.90;99.90
18839;DHT22;9548;56.920;14.804;2022-10-16T00:19:37;11.80;99.90
18839;DHT22;9548;56.920;14.804;2022-10-16T00:22:04;11.80;99.90
18839;DHT22;9548;56.920;14.804;2022-10-16T00:24:31;11.80;99.90
18839;DHT22;9548;56.920;14.804;2022-10-16T00:26:58;11.80;99.90
18839;DHT22;9548;56.920;14.804;2022-10-16T00:29:25;11.80;99.90
18839;DHT22;9548;56.920;14.804;2022-10-16T00:31:53;11.80;99.90
18839;DHT22;9548;56.920;14.804;2022-10-16T00:34:20;11.80;99.90
18839;DHT22;9548;56.920;14.804;2022-10-16T00:36:47;11.80;99.90
18839;DHT22;9548;56.920;14.804;2022-10-16T00:39:14;11.80;99.90
18839;DHT22;9548;56.920;14.804;2022-10-16T00:41:40;11.80;99.90
18839;DHT22;9548;56.920;14.804;2022-10-16T00:44:42;11.80;99.90
18839;DHT22;9548;56.920;14.804;2022-10-16T00:47:11;11.80;99.90
18839;DHT22;9548;56.920;14.804;2022-10-16T00:49:39;11.80;99.90
18839;DHT22;9548;56.920;14.804;2022-10-16T00:52:06;11.80;99.90
18839;DHT22;9548;56.920;14.804;2022-10-16T00:54:33;11.80;99.90
18839;DHT22;9548;56.920;14.804;2022-10-16T00:57:03;11.80;99.90
18839;DHT22;9548;56.920;14.804;2022-10-16T00:59:33;11.80;99.90
18839;DHT22;9548;56.920;14.804;2022-10-16T01:02:00;11.80;99.90
18839;DHT22;9548;56.920;14.804;2022-10-16T01:04:35;11.80;99.90
18839;DHT22;9548;56.920;14.804;2022-10-16T01:07:09;11.80;99.90
18839;DHT22;9548;56.920;14.804;2022-10-16T01:09:47;11.90;99.90
18839;DHT22;9548;56.920;14.804;2022-10-16T01:12:22;11.80;99.90
18839;DHT22;9548;56.920;14.804;2022-10-16T01:14:53;11.80;99.90
18839;DHT22;9548;56.920;14.804;2022-10-16T01:17:25;11.90;99.90
18839;DHT22;9548;56.920;14.804;2022-10-16T01:20:04;11.90;99.90
18839;DHT22;9548;56.920;14.804;2022-10-16T01:22:39;11.90;99.90
18839;DHT22;9548;56.920;14.804;2022-10-16T01:25:13;11.90;99.90
18839;DHT22;9548;56.920;14.804;2022-10-16T01:27:46;11.90;99.90
18839;DHT22;9548;56.920;14.804;2022-10-16T01:30:18;11.90;99.90
18839;DHT22;9548;56.920;14.804;2022-10-16T01:32:51;11.90;99.90
18839;DHT22;9548;56.920;14.804;2022-10-16T01:35:23;12.00;99.90
18839;DHT22;9548;56.920;14.804;2022-10-16T01:37:55;12.00;99.90
18839;DHT22;9548;56.920;14.804;2022-10-16T01:40:26;12.00;99.90
18839;DHT22;9548;56.920;14.804;2022-10-16T01:42:59;12.10;99.90
18839;DHT22;9548;56.920;14.804;2022-10-16T01:45:28;12.10;99.90
18839;DHT22;9548;56.920;14.804;2022-10-16T01:47:59;12.20;99.90
18839;DHT22;9548;56.920;14.804;2022-10-16T01:50:31;12.20;99.90
18839;DHT22;9548;56.920;14.804;2022-10-16T01:52:59;12.30;99.90
18839;DHT22;9548;56.920;14.804;2022-10-16T01:55:30;12.30;99.90
18839;DHT22;9548;56.920;14.804;2022-10-16T01:58:01;12.30;99.90
18839;DHT22;9548;56.920;14.804;2022-10-16T02:00:29;12.30;99.90
18839;DHT22;9548;56.920;14.804;2022-10-16T02:02:58;12.40;99.90
18839;DHT22;9548;56.920;14.804;2022-10-16T02:05:30;12.40;99.90
18839;DHT22;9548;56.920;14.804;2022-10-16T02:07:58;12.40;99.90
18839;DHT22;9548;56.920;14.804;2022-10-16T02:10:25;12.40;99.90
18839;DHT22;9548;56.920;14.804;2022-10-16T02:12:59;12.40;99.90
18839;DHT22;9548;56.920;14.804;2022-10-16T02:15:28;12.40;99.90
18839;DHT22;9548;56.920;14.804;2022-10-16T02:17:55;12.40;99.90
18839;DHT22;9548;56.920;14.804;2022-10-16T02:20:25;12.50;99.90
18839;DHT22;9548;56.920;14.804;2022-10-16T02:22:54;12.50;99.90
18839;DHT22;9548;56.920;14.804;2022-10-16T02:25:26;12.50;99.90
18839;DHT22;9548;56.920;14.804;2022-10-16T02:27:59;12.50;99.90
18839;DHT22;9548;56.920;14.804;2022-10-16T02:30:32;12.50;99.90
18839;DHT22;9548;56.920;14.804;2022-10-16T02:33:02;12.50;99.90
18839;DHT22;9548;56.920;14.804;2022-10-16T02:35:30;12.50;99.90
18839;DHT22;9548;56.920;14.804;2022-10-16T02:37:58;12.50;99.90
18839;DHT22;9548;56.920;14.804;2022-10-16T02:40:26;12.60;99.90
18839;DHT22;9548;56.920;14.804;2022-10-16T02:42:54;12.60;99.90
18839;DHT22;9548;56.920;14.804;2022-10-16T02:45:22;12.60;99.90
18839;DHT22;9548;56.920;14.804;2022-10-16T02:47:51;12.60;99.90
18839;DHT22;9548;56.920;14.804;2022-10-16T02:50:18;12.60;99.90
18839;DHT22;9548;56.920;14.804;2022-10-16T02:52:45;12.60;99.90
18839;DHT22;9548;56.920;14.804;2022-10-16T02:55:12;12.60;99.90
18839;DHT22;9548;56.920;14.804;2022-10-16T02:57:38;12.50;99.90
18839;DHT22;9548;56.920;14.804;2022-10-16T03:00:08;12.50;99.90
18839;DHT22;9548;56.920;14.804;2022-10-16T03:02:35;12.60;99.90
18839;DHT22;9548;56.920;14.804;2022-10-16T03:05:04;12.50;99.90
18839;DHT22;9548;56.920;14.804;2022-10-16T03:07:31;12.50;99.90
18839;DHT22;9548;56.920;14.804;2022-10-16T03:09:59;12.50;99.90
18839;DHT22;9548;56.920;14.804;2022-10-16T03:12:26;12.40;99.90
18839;DHT22;9548;56.920;14.804;2022-10-16T03:14:53;12.40;99.90
18839;DHT22;9548;56.920;14.804;2022-10-16T03:17:20;12.40;99.90
18839;DHT22;9548;56.920;14.804;2022-10-16T03:19:47;12.30;99.90
18839;DHT22;9548;56.920;14.804;2022-10-16T03:22:15;12.20;99.90
18839;DHT22;9548;56.920;14.804;2022-10-16T03:24:42;12.10;99.90
18839;DHT22;9548;56.920;14.804;2022-10-16T03:27:09;12.00;99.90
18839;DHT22;9548;56.920;14.804;2022-10-16T03:29:36;12.00;99.90
18839;DHT22;9548;56.920;14.804;2022-10-16T03:32:03;12.00;99.90
18839;DHT22;9548;56.920;14.804;2022-10-16T03:34:30;12.00;99.90
18839;DHT22;9548;56.920;14.804;2022-10-16T03:36:57;12.00;99.90
18839;DHT22;9548;56.920;14.804;2022-10-16T03:39:25;12.00;99.90
18839;DHT22;9548;56.920;14.804;2022-10-16T03:41:52;12.00;99.90
18839;DHT22;9548;56.920;14.804;2022-10-16T03:44:19;12.00;99.90
18839;DHT22;9548;56.920;14.804;2022-10-16T03:46:46;12.00;99.90
18839;DHT22;9548;56.920;14.804;2022-10-16T03:49:13;12.00;99.90
18839;DHT22;9548;56.920;14.804;2022-10-16T03:51:40;11.90;99.90
18839;DHT22;9548;56.920;14.804;2022-10-16T03:54:07;11.90;99.90
18839;DHT22;9548;56.920;14.804;2022-10-16T03:56:35;11.90;99.90
18839;DHT22;9548;56.920;14.804;2022-10-16T03:59:02;11.70;99.90
18839;DHT22;9548;56.920;14.804;2022-10-16T04:01:29;11.60;99.90
18839;DHT22;9548;56.920;14.804;2022-10-16T04:03:56;11.60;99.90
18839;DHT22;9548;56.920;14.804;2022-10-16T04:06:23;11.50;99.90
18839;DHT22;9548;56.920;14.804;2022-10-16T04:08:50;11.40;99.90
18839;DHT22;9548;56.920;14.804;2022-10-16T04:11:17;11.30;99.90
18839;DHT22;9548;56.920;14.804;2022-10-16T04:13:45;11.20;99.90
18839;DHT22;9548;56.920;14.804;2022-10-16T04:16:12;11.20;99.90
18839;DHT22;9548;56.920;14.804;2022-10-16T04:18:39;11.10;99.90
18839;DHT22;9548;56.920;14.804;2022-10-16T04:21:06;11.10;99.90
18839;DHT22;9548;56.920;14.804;2022-10-16T04:23:34;11.20;99.90
18839;DHT22;9548;56.920;14.804;2022-10-16T04:26:01;11.20;99.90
18839;DHT22;9548;56.920;14.804;2022-10-16T04:28:28;11.30;99.90
18839;DHT22;9548;56.920;14.804;2022-10-16T04:30:56;11.30;99.90
18839;DHT22;9548;56.920;14.804;2022-10-16T04:33:23;11.30;99.90
18839;DHT22;9548;56.920;14.804;2022-10-16T04:35:56;11.30;99.90
18839;DHT22;9548;56.920;14.804;2022-10-16T04:38:23;11.40;99.90
18839;DHT22;9548;56.920;14.804;2022-10-16T04:40:50;11.40;99.90
18839;DHT22;9548;56.920;14.804;2022-10-16T04:43:18;11.40;99.90
18839;DHT22;9548;56.920;14.804;2022-10-16T04:45:44;11.40;99.90
18839;DHT22;9548;56.920;14.804;2022-10-16T04:48:13;11.30;99.90
18839;DHT22;9548;56.920;14.804;2022-10-16T04:50:41;11.30;99.90
18839;DHT22;9548;56.920;14.804;2022-10-16T04:53:08;11.30;99.90
18839;DHT22;9548;56.920;14.804;2022-10-16T04:55:34;11.20;99.90
18839;DHT22;9548;56.920;14.804;2022-10-16T04:58:02;11.20;99.90
18839;DHT22;9548;56.920;14.804;2022-10-16T05:00:29;11.10;99.90
18839;DHT22;9548;56.920;14.804;2022-10-16T05:02:56;11.10;99.90
18839;DHT22;9548;56.920;14.804;2022-10-16T05:05:26;11.00;99.90
18839;DHT22;9548;56.920;14.804;2022-10-16T05:07:53;11.00;99.90
18839;DHT22;9548;56.920;14.804;2022-10-16T05:10:20;10.90;99.90
18839;DHT22;9548;56.920;14.804;2022-10-16T05:12:47;10.90;99.90
18839;DHT22;9548;56.920;14.804;2022-10-16T05:15:14;10.90;99.90
18839;DHT22;9548;56.920;14.804;2022-10-16T05:17:41;10.80;99.90
18839;DHT22;9548;56.920;14.804;2022-10-16T05:20:08;10.70;99.90
18839;DHT22;9548;56.920;14.804;2022-10-16T05:22:36;10.70;99.90
18839;DHT22;9548;56.920;14.804;2022-10-16T05:25:04;10.60;99.90
18839;DHT22;9548;56.920;14.804;2022-10-16T05:27:31;10.50;99.90
18839;DHT22;9548;56.920;14.804;2022-10-16T05:29:57;10.50;99.90
18839;DHT22;9548;56.920;14.804;2022-10-16T05:32:24;10.40;99.90
18839;DHT22;9548;56.920;14.804;2022-10-16T05:34:51;10.40;99.90
18839;DHT22;9548;56.920;14.804;2022-10-16T05:37:18;10.40;99.90
18839;DHT22;9548;56.920;14.804;2022-10-16T05:39:47;10.30;99.90
18839;DHT22;9548;56.920;14.804;2022-10-16T05:42:14;10.30;99.90
18839;DHT22;9548;56.920;14.804;2022-10-16T05:44:41;10.30;99.90
18839;DHT22;9548;56.920;14.804;2022-10-16T05:47:07;10.20;99.90
18839;DHT22;9548;56.920;14.804;2022-10-16T05:49:36;10.20;99.90
18839;DHT22;9548;56.920;14.804;2022-10-16T05:52:03;10.20;99.90
18839;DHT22;9548;56.920;14.804;2022-10-16T05:54:30;10.20;99.90
18839;DHT22;9548;56.920;14.804;2022-10-16T05:56:58;10.20;99.90
18839;DHT22;9548;56.920;14.804;2022-10-16T05:59:25;10.20;99.90
18839;DHT22;9548;56.920;14.804;2022-10-16T06:01:52;10.30;99.90
18839;DHT22;9548;56.920;14.804;2022-10-16T06:04:19;10.40;99.90
18839;DHT22;9548;56.920;14.804;2022-10-16T06:06:46;10.50;99.90
18839;DHT22;9548;56.920;14.804;2022-10-16T06:09:13;10.50;99.90
18839;DHT22;9548;56.920;14.804;2022-10-16T06:11:40;10.50;99.90
18839;DHT22;9548;56.920;14.804;2022-10-16T06:14:09;10.50;99.90
18839;DHT22;9548;56.920;14.804;2022-10-16T06:16:37;10.60;99.90
18839;DHT22;9548;56.920;14.804;2022-10-16T06:19:04;10.60;99.90
18839;DHT22;9548;56.920;14.804;2022-10-16T06:21:34;10.60;99.90
18839;DHT22;9548;56.920;14.804;2022-10-16T06:24:00;10.70;99.90
18839;DHT22;9548;56.920;14.804;2022-10-16T06:26:29;10.70;99.90
18839;DHT22;9548;56.920;14.804;2022-10-16T06:28:58;10.80;99.90
18839;DHT22;9548;56.920;14.804;2022-10-16T06:31:27;10.80;99.90
18839;DHT22;9548;56.920;14.804;2022-10-16T06:33:56;10.90;99.90
18839;DHT22;9548;56.920;14.804;2022-10-16T06:36:24;10.90;99.90
18839;DHT22;9548;56.920;14.804;2022-10-16T06:38:51;11.00;99.90
18839;DHT22;9548;56.920;14.804;2022-10-16T06:41:20;11.00;99.90
18839;DHT22;9548;56.920;14.804;2022-10-16T06:43:48;11.10;99.90
18839;DHT22;9548;56.920;14.804;2022-10-16T06:46:16;11.20;99.90
18839;DHT22;9548;56.920;14.804;2022-10-16T06:48:45;11.20;99.90
18839;DHT22;9548;56.920;14.804;2022-10-16T06:51:14;11.20;99.90
18839;DHT22;9548;56.920;14.804;2022-10-16T06:53:42;11.20;99.90
18839;DHT22;9548;56.920;14.804;2022-10-16T06:56:11;11.20;99.90
18839;DHT22;9548;56.920;14.804;2022-10-16T06:58:39;11.20;99.90
18839;DHT22;9548;56.920;14.804;2022-10-16T07:01:06;11.20;99.90
18839;DHT22;9548;56.920;14.804;2022-10-16T07:03:35;11.20;99.90
18839;DHT22;9548;56.920;14.804;2022-10-16T07:06:05;11.20;99.90
18839;DHT22;9548;56.920;14.804;2022-10-16T07:08:32;11.30;99.90
18839;DHT22;9548;56.920;14.804;2022-10-16T07:11:00;11.30;99.90
18839;DHT22;9548;56.920;14.804;2022-10-16T07:13:27;11.30;99.90
18839;DHT22;9548;56.920;14.804;2022-10-16T07:15:54;11.30;99.90
18839;DHT22;9548;56.920;14.804;2022-10-16T07:18:21;11.30;99.90
18839;DHT22;9548;56.920;14.804;2022-10-16T07:20:52;11.40;99.90
18839;DHT22;9548;56.920;14.804;2022-10-16T07:23:20;11.50;99.90
18839;DHT22;9548;56.920;14.804;2022-10-16T07:25:53;11.50;99.90
18839;DHT22;9548;56.920;14.804;2022-10-16T07:28:20;11.60;99.90
18839;DHT22;9548;56.920;14.804;2022-10-16T07:30:48;11.70;99.90
18839;DHT22;9548;56.920;14.804;2022-10-16T07:33:15;11.70;99.90
18839;DHT22;9548;56.920;14.804;2022-10-16T07:35:48;11.80;99.90
18839;DHT22;9548;56.920;14.804;2022-10-16T07:38:15;11.90;99.90
18839;DHT22;9548;56.920;14.804;2022-10-16T07:40:43;12.00;99.90
18839;DHT22;9548;56.920;14.804;2022-10-16T07:43:10;12.10;99.90
18839;DHT22;9548;56.920;14.804;2022-10-16T07:45:37;12.20;99.90
18839;DHT22;9548;56.920;14.804;2022-10-16T07:48:05;12.20;99.90
18839;DHT22;9548;56.920;14.804;2022-10-16T07:50:32;12.20;99.90
18839;DHT22;9548;56.920;14.804;2022-10-16T07:52:59;12.20;99.90
18839;DHT22;9548;56.920;14.804;2022-10-16T07:55:26;12.20;99.90
18839;DHT22;9548;56.920;14.804;2022-10-16T07:57:54;12.30;99.90
18839;DHT22;9548;56.920;14.804;2022-10-16T08:00:21;12.40;99.90
18839;DHT22;9548;56.920;14.804;2022-10-16T08:02:48;12.50;99.90
18839;DHT22;9548;56.920;14.804;2022-10-16T08:05:15;12.60;99.90
18839;DHT22;9548;56.920;14.804;2022-10-16T08:07:42;12.70;99.90
18839;DHT22;9548;56.920;14.804;2022-10-16T08:10:16;12.80;99.90
18839;DHT22;9548;56.920;14.804;2022-10-16T08:12:43;12.80;99.90
18839;DHT22;9548;56.920;14.804;2022-10-16T08:15:11;12.80;99.90
18839;DHT22;9548;56.920;14.804;2022-10-16T08:17:38;12.80;99.90
18839;DHT22;9548;56.920;14.804;2022-10-16T08:20:06;12.90;99.90
18839;DHT22;9548;56.920;14.804;2022-10-16T08:22:33;12.90;99.90
18839;DHT22;9548;56.920;14.804;2022-10-16T08:25:00;13.00;99.90
18839;DHT22;9548;56.920;14.804;2022-10-16T08:27:31;13.00;99.90
18839;DHT22;9548;56.920;14.804;2022-10-16T08:29:58;12.90;99.90
18839;DHT22;9548;56.920;14.804;2022-10-16T08:32:26;12.80;99.90
18839;DHT22;9548;56.920;14.804;2022-10-16T08:34:53;12.90;99.90
18839;DHT22;9548;56.920;14.804;2022-10-16T08:37:20;13.00;99.90
18839;DHT22;9548;56.920;14.804;2022-10-16T08:39:47;13.10;99.90
18839;DHT22;9548;56.920;14.804;2022-10-16T08:42:34;13.00;99.90
18839;DHT22;9548;56.920;14.804;2022-10-16T08:45:28;13.10;99.90
18839;DHT22;9548;56.920;14.804;2022-10-16T08:48:10;13.20;99.90
18839;DHT22;9548;56.920;14.804;2022-10-16T08:50:40;13.30;99.90
18839;DHT22;9548;56.920;14.804;2022-10-16T08:53:11;13.40;99.90
18839;DHT22;9548;56.920;14.804;2022-10-16T08:55:43;13.40;99.90
18839;DHT22;9548;56.920;14.804;2022-10-16T08:58:13;13.50;99.90
18839;DHT22;9548;56.920;14.804;2022-10-16T09:00:42;13.50;99.90
18839;DHT22;9548;56.920;14.804;2022-10-16T09:03:17;13.60;99.90
18839;DHT22;9548;56.920;14.804;2022-10-16T09:06:07;13.70;99.90
18839;DHT22;9548;56.920;14.804;2022-10-16T09:08:40;13.60;99.90
18839;DHT22;9548;56.920;14.804;2022-10-16T09:11:17;13.70;99.90
18839;DHT22;9548;56.920;14.804;2022-10-16T09:13:51;13.70;99.90
18839;DHT22;9548;56.920;14.804;2022-10-16T09:16:21;13.70;99.90
18839;DHT22;9548;56.920;14.804;2022-10-16T09:18:56;13.70;99.90
18839;DHT22;9548;56.920;14.804;2022-10-16T09:21:28;13.70;99.90
18839;DHT22;9548;56.920;14.804;2022-10-16T09:23:59;13.60;99.90
18839;DHT22;9548;56.920;14.804;2022-10-16T09:26:26;13.50;99.90
18839;DHT22;9548;56.920;14.804;2022-10-16T09:28:53;13.50;99.90
18839;DHT22;9548;56.920;14.804;2022-10-16T09:31:22;13.60;99.90
18839;DHT22;9548;56.920;14.804;2022-10-16T09:33:54;13.70;99.90
18839;DHT22;9548;56.920;14.804;2022-10-16T09:36:23;13.90;99.90
18839;DHT22;9548;56.920;14.804;2022-10-16T09:39:02;14.30;99.90
18839;DHT22;9548;56.920;14.804;2022-10-16T09:41:30;14.70;99.90
18839;DHT22;9548;56.920;14.804;2022-10-16T09:43:59;15.00;99.90
18839;DHT22;9548;56.920;14.804;2022-10-16T09:46:29;15.00;99.90
18839;DHT22;9548;56.920;14.804;2022-10-16T09:49:00;15.10;99.90
18839;DHT22;9548;56.920;14.804;2022-10-16T09:51:29;15.40;99.90
18839;DHT22;9548;56.920;14.804;2022-10-16T09:53:59;15.30;99.90
18839;DHT22;9548;56.920;14.804;2022-10-16T09:56:28;15.10;99.90
18839;DHT22;9548;56.920;14.804;2022-10-16T09:58:58;15.10;99.90
18839;DHT22;9548;56.920;14.804;2022-10-16T10:01:29;15.00;99.90
18839;DHT22;9548;56.920;14.804;2022-10-16T10:03:58;15.00;99.90
18839;DHT22;9548;56.920;14.804;2022-10-16T10:06:29;15.50;99.90
18839;DHT22;9548;56.920;14.804;2022-10-16T10:09:06;15.70;99.90
18839;DHT22;9548;56.920;14.804;2022-10-16T10:11:38;15.80;99.90
18839;DHT22;9548;56.920;14.804;2022-10-16T10:14:05;16.00;99.90
18839;DHT22;9548;56.920;14.804;2022-10-16T10:16:32;16.40;99.90
18839;DHT22;9548;56.920;14.804;2022-10-16T10:19:01;16.60;99.90
18839;DHT22;9548;56.920;14.804;2022-10-16T10:21:28;16.90;99.90
18839;DHT22;9548;56.920;14.804;2022-10-16T10:23:55;17.40;99.90
18839;DHT22;9548;56.920;14.804;2022-10-16T10:26:26;18.00;99.90
18839;DHT22;9548;56.920;14.804;2022-10-16T10:29:00;18.20;99.90
18839;DHT22;9548;56.920;14.804;2022-10-16T10:31:36;18.80;99.90
18839;DHT22;9548;56.920;14.804;2022-10-16T10:34:20;19.50;99.90
18839;DHT22;9548;56.920;14.804;2022-10-16T10:36:54;19.40;99.90
18839;DHT22;9548;56.920;14.804;2022-10-16T10:39:29;18.80;99.90
18839;DHT22;9548;56.920;14.804;2022-10-16T10:42:15;18.00;99.90
18839;DHT22;9548;56.920;14.804;2022-10-16T10:44:59;17.20;99.90
18839;DHT22;9548;56.920;14.804;2022-10-16T10:47:36;17.00;99.90
18839;DHT22;9548;56.920;14.804;2022-10-16T10:50:12;16.80;99.90
18839;DHT22;9548;56.920;14.804;2022-10-16T10:52:56;16.40;99.90
18839;DHT22;9548;56.920;14.804;2022-10-16T10:55:33;16.20;99.90
18839;DHT22;9548;56.920;14.804;2022-10-16T11:01:09;15.60;99.90
18839;DHT22;9548;56.920;14.804;2022-10-16T11:03:53;15.40;99.90
18839;DHT22;9548;56.920;14.804;2022-10-16T11:06:26;15.20;99.90
18839;DHT22;9548;56.920;14.804;2022-10-16T11:08:59;15.00;99.90
18839;DHT22;9548;56.920;14.804;2022-10-16T11:11:32;15.10;99.90
18839;DHT22;9548;56.920;14.804;2022-10-16T11:14:03;15.10;99.90
18839;DHT22;9548;56.920;14.804;2022-10-16T11:16:37;15.10;99.90
18839;DHT22;9548;56.920;14.804;2022-10-16T11:19:11;15.00;99.90
18839;DHT22;9548;56.920;14.804;2022-10-16T11:21:44;14.80;99.90
18839;DHT22;9548;56.920;14.804;2022-10-16T11:24:20;14.70;99.90
18839;DHT22;9548;56.920;14.804;2022-10-16T11:26:50;14.70;99.90
18839;DHT22;9548;56.920;14.804;2022-10-16T11:29:22;14.80;99.90
18839;DHT22;9548;56.920;14.804;2022-10-16T11:31:53;14.80;99.90
18839;DHT22;9548;56.920;14.804;2022-10-16T11:34:26;14.80;99.90
18839;DHT22;9548;56.920;14.804;2022-10-16T11:37:01;14.80;99.90
18839;DHT22;9548;56.920;14.804;2022-10-16T11:39:30;14.60;99.90
18839;DHT22;9548;56.920;14.804;2022-10-16T11:42:03;14.60;99.90
18839;DHT22;9548;56.920;14.804;2022-10-16T11:44:50;14.70;99.90
18839;DHT22;9548;56.920;14.804;2022-10-16T11:47:27;14.80;99.90
18839;DHT22;9548;56.920;14.804;2022-10-16T11:50:00;15.20;99.90
18839;DHT22;9548;56.920;14.804;2022-10-16T11:52:35;15.60;99.90
18839;DHT22;9548;56.920;14.804;2022-10-16T11:55:09;15.70;99.90
18839;DHT22;9548;56.920;14.804;2022-10-16T11:57:44;16.00;99.90
18839;DHT22;9548;56.920;14.804;2022-10-16T12:00:20;16.90;99.90
18839;DHT22;9548;56.920;14.804;2022-10-16T12:02:54;16.90;99.90
18839;DHT22;9548;56.920;14.804;2022-10-16T12:05:31;17.00;99.90
18839;DHT22;9548;56.920;14.804;2022-10-16T12:08:08;17.60;99.90
18839;DHT22;9548;56.920;14.804;2022-10-16T12:10:37;18.10;99.90
18839;DHT22;9548;56.920;14.804;2022-10-16T12:13:04;18.20;99.90
18839;DHT22;9548;56.920;14.804;2022-10-16T12:15:33;18.30;99.90
18839;DHT22;9548;56.920;14.804;2022-10-16T12:18:00;18.80;99.90
18839;DHT22;9548;56.920;14.804;2022-10-16T12:20:29;18.80;99.90
18839;DHT22;9548;56.920;14.804;2022-10-16T12:22:59;19.30;99.90
18839;DHT22;9548;56.920;14.804;2022-10-16T12:25:30;19.20;99.90
18839;DHT22;9548;56.920;14.804;2022-10-16T12:28:00;18.90;99.90
18839;DHT22;9548;56.920;14.804;2022-10-16T12:30:30;18.40;99.90
18839;DHT22;9548;56.920;14.804;2022-10-16T12:32:59;17.70;99.90
18839;DHT22;9548;56.920;14.804;2022-10-16T12:35:29;16.90;99.90
18839;DHT22;9548;56.920;14.804;2022-10-16T12:38:12;16.50;99.90
18839;DHT22;9548;56.920;14.804;2022-10-16T12:40:43;16.30;99.90
18839;DHT22;9548;56.920;14.804;2022-10-16T12:43:12;16.40;99.90
18839;DHT22;9548;56.920;14.804;2022-10-16T12:45:39;16.40;99.90
18839;DHT22;9548;56.920;14.804;2022-10-16T12:48:20;16.30;99.90
18839;DHT22;9548;56.920;14.804;2022-10-16T12:50:48;16.20;99.90
18839;DHT22;9548;56.920;14.804;2022-10-16T12:53:19;16.40;99.90
18839;DHT22;9548;56.920;14.804;2022-10-16T12:55:55;17.30;99.90
18839;DHT22;9548;56.920;14.804;2022-10-16T12:58:39;17.30;99.90
18839;DHT22;9548;56.920;14.804;2022-10-16T13:01:19;17.20;99.90
18839;DHT22;9548;56.920;14.804;2022-10-16T13:04:13;16.80;99.90
18839;DHT22;9548;56.920;14.804;2022-10-16T13:06:48;16.50;99.90
18839;DHT22;9548;56.920;14.804;2022-10-16T13:09:35;16.70;99.90
18839;DHT22;9548;56.920;14.804;2022-10-16T13:12:17;17.30;99.90
18839;DHT22;9548;56.920;14.804;2022-10-16T13:15:16;18.60;99.90
18839;DHT22;9548;56.920;14.804;2022-10-16T13:17:52;18.50;99.90
18839;DHT22;9548;56.920;14.804;2022-10-16T13:20:28;17.60;99.90
18839;DHT22;9548;56.920;14.804;2022-10-16T13:23:10;16.80;99.90
18839;DHT22;9548;56.920;14.804;2022-10-16T13:25:48;16.30;99.90
18839;DHT22;9548;56.920;14.804;2022-10-16T13:28:21;16.00;99.90
18839;DHT22;9548;56.920;14.804;2022-10-16T13:30:52;15.90;99.90
18839;DHT22;9548;56.920;14.804;2022-10-16T13:33:23;15.60;99.90
18839;DHT22;9548;56.920;14.804;2022-10-16T13:35:55;15.40;99.90
18839;DHT22;9548;56.920;14.804;2022-10-16T13:38:24;15.60;99.90
18839;DHT22;9548;56.920;14.804;2022-10-16T13:40:54;15.50;99.90
18839;DHT22;9548;56.920;14.804;2022-10-16T13:43:26;15.50;99.90
18839;DHT22;9548;56.920;14.804;2022-10-16T13:45:59;15.50;99.90
18839;DHT22;9548;56.920;14.804;2022-10-16T13:48:28;15.30;99.90
18839;DHT22;9548;56.920;14.804;2022-10-16T13:51:02;15.20;99.90
18839;DHT22;9548;56.920;14.804;2022-10-16T13:53:31;15.00;99.90
18839;DHT22;9548;56.920;14.804;2022-10-16T13:56:01;14.90;99.90
18839;DHT22;9548;56.920;14.804;2022-10-16T13:58:29;14.90;99.90
18839;DHT22;9548;56.920;14.804;2022-10-16T14:00:58;14.80;99.90
18839;DHT22;9548;56.920;14.804;2022-10-16T14:03:26;14.70;99.90
18839;DHT22;9548;56.920;14.804;2022-10-16T14:05:55;14.60;99.90
18839;DHT22;9548;56.920;14.804;2022-10-16T14:08:25;14.60;99.90
18839;DHT22;9548;56.920;14.804;2022-10-16T14:10:55;14.60;99.90
18839;DHT22;9548;56.920;14.804;2022-10-16T14:13:32;14.50;99.90
18839;DHT22;9548;56.920;14.804;2022-10-16T14:16:05;14.30;99.90
18839;DHT22;9548;56.920;14.804;2022-10-16T14:18:32;14.10;99.90
18839;DHT22;9548;56.920;14.804;2022-10-16T14:21:04;13.70;99.90
18839;DHT22;9548;56.920;14.804;2022-10-16T14:23:35;13.40;99.90
